sensor_id;sensor_type;location;lat;lon;timestamp;P1;durP1;ratioP1;P2;durP2;ratioP2
69750;SDS011;57335;52.288;6.056;2023-12-07T00:01:23;25.40;;;9.73;;
69750;SDS011;57335;52.288;6.056;2023-12-07T00:03:50;29.23;;;11.00;;
69750;SDS011;57335;52.288;6.056;2023-12-07T00:06:16;26.50;;;10.15;;
69750;SDS011;57335;52.288;6.056;2023-12-07T00:08:43;24.88;;;9.88;;
69750;SDS011;57335;52.288;6.056;2023-12-07T00:13:36;30.45;;;10.88;;
69750;SDS011;57335;52.288;6.056;2023-12-07T00:18:29;32.67;;;9.85;;
69750;SDS011;57335;52.288;6.056;2023-12-07T00:20:56;28.10;;;9.43;;
69750;SDS011;57335;52.288;6.056;2023-12-07T00:23:22;28.45;;;10.10;;
69750;SDS011;57335;52.288;6.056;2023-12-07T00:25:49;27.92;;;10.80;;
69750;SDS011;57335;52.288;6.056;2023-12-07T00:28:17;24.60;;;10.68;;
69750;SDS011;57335;52.288;6.056;2023-12-07T00:30:44;25.08;;;9.45;;
69750;SDS011;57335;52.288;6.056;2023-12-07T00:35:36;22.73;;;9.02;;
69750;SDS011;57335;52.288;6.056;2023-12-07T00:40:29;25.83;;;9.45;;
69750;SDS011;57335;52.288;6.056;2023-12-07T00:42:57;26.25;;;10.23;;
69750;SDS011;57335;52.288;6.056;2023-12-07T00:45:23;31.25;;;10.50;;
69750;SDS011;57335;52.288;6.056;2023-12-07T00:47:50;28.63;;;10.63;;
69750;SDS011;57335;52.288;6.056;2023-12-07T00:50:17;25.13;;;10.77;;
69750;SDS011;57335;52.288;6.056;2023-12-07T00:52:43;26.70;;;10.90;;
69750;SDS011;57335;52.288;6.056;2023-12-07T00:55:10;29.40;;;10.88;;
69750;SDS011;57335;52.288;6.056;2023-12-07T00:57:38;26.25;;;10.65;;
69750;SDS011;57335;52.288;6.056;2023-12-07T01:00:05;26.00;;;10.63;;
69750;SDS011;57335;52.288;6.056;2023-12-07T01:02:34;28.52;;;10.73;;
69750;SDS011;57335;52.288;6.056;2023-12-07T01:07:27;28.23;;;9.98;;
69750;SDS011;57335;52.288;6.056;2023-12-07T01:12:20;28.05;;;11.10;;
69750;SDS011;57335;52.288;6.056;2023-12-07T01:14:47;27.45;;;10.75;;
69750;SDS011;57335;52.288;6.056;2023-12-07T01:17:13;25.65;;;10.60;;
69750;SDS011;57335;52.288;6.056;2023-12-07T01:22:06;24.38;;;8.60;;
69750;SDS011;57335;52.288;6.056;2023-12-07T01:26:59;27.42;;;9.55;;
69750;SDS011;57335;52.288;6.056;2023-12-07T01:29:25;23.13;;;8.43;;
69750;SDS011;57335;52.288;6.056;2023-12-07T01:31:52;23.73;;;9.25;;
69750;SDS011;57335;52.288;6.056;2023-12-07T01:36:45;22.42;;;9.02;;
69750;SDS011;57335;52.288;6.056;2023-12-07T01:39:12;30.33;;;10.52;;
69750;SDS011;57335;52.288;6.056;2023-12-07T01:41:39;27.70;;;11.15;;
69750;SDS011;57335;52.288;6.056;2023-12-07T01:44:06;27.80;;;9.57;;
69750;SDS011;57335;52.288;6.056;2023-12-07T01:49:00;24.23;;;9.63;;
69750;SDS011;57335;52.288;6.056;2023-12-07T01:51:27;25.48;;;9.30;;
69750;SDS011;57335;52.288;6.056;2023-12-07T01:53:54;28.50;;;10.40;;
69750;SDS011;57335;52.288;6.056;2023-12-07T01:56:21;24.90;;;10.30;;
69750;SDS011;57335;52.288;6.056;2023-12-07T01:58:51;83.63;;;13.40;;
69750;SDS011;57335;52.288;6.056;2023-12-07T02:01:17;46.85;;;10.98;;
69750;SDS011;57335;52.288;6.056;2023-12-07T02:03:44;39.67;;;11.95;;
69750;SDS011;57335;52.288;6.056;2023-12-07T02:06:11;30.52;;;10.40;;
69750;SDS011;57335;52.288;6.056;2023-12-07T02:08:39;33.97;;;11.88;;
69750;SDS011;57335;52.288;6.056;2023-12-07T02:11:08;29.25;;;11.45;;
69750;SDS011;57335;52.288;6.056;2023-12-07T02:13:39;33.03;;;11.95;;
69750;SDS011;57335;52.288;6.056;2023-12-07T02:16:50;29.48;;;10.45;;
69750;SDS011;57335;52.288;6.056;2023-12-07T02:24:30;57.70;;;11.77;;
69750;SDS011;57335;52.288;6.056;2023-12-07T02:26:59;59.67;;;11.43;;
69750;SDS011;57335;52.288;6.056;2023-12-07T02:29:26;68.15;;;11.85;;
69750;SDS011;57335;52.288;6.056;2023-12-07T02:31:52;28.55;;;9.80;;
69750;SDS011;57335;52.288;6.056;2023-12-07T02:34:19;36.95;;;10.77;;
69750;SDS011;57335;52.288;6.056;2023-12-07T02:39:14;60.80;;;10.45;;
69750;SDS011;57335;52.288;6.056;2023-12-07T02:41:41;88.20;;;14.10;;
69750;SDS011;57335;52.288;6.056;2023-12-07T02:44:09;29.33;;;9.90;;
69750;SDS011;57335;52.288;6.056;2023-12-07T02:46:36;25.17;;;9.40;;
69750;SDS011;57335;52.288;6.056;2023-12-07T02:49:03;74.63;;;11.65;;
69750;SDS011;57335;52.288;6.056;2023-12-07T02:51:30;102.43;;;14.63;;
69750;SDS011;57335;52.288;6.056;2023-12-07T02:56:23;100.85;;;13.15;;
69750;SDS011;57335;52.288;6.056;2023-12-07T02:58:49;122.72;;;13.20;;
69750;SDS011;57335;52.288;6.056;2023-12-07T03:01:16;56.47;;;11.60;;
69750;SDS011;57335;52.288;6.056;2023-12-07T03:06:09;31.50;;;9.73;;
69750;SDS011;57335;52.288;6.056;2023-12-07T03:11:02;21.10;;;8.63;;
69750;SDS011;57335;52.288;6.056;2023-12-07T03:15:55;25.17;;;10.32;;
69750;SDS011;57335;52.288;6.056;2023-12-07T03:20:48;37.05;;;9.63;;
69750;SDS011;57335;52.288;6.056;2023-12-07T03:23:16;20.75;;;8.05;;
69750;SDS011;57335;52.288;6.056;2023-12-07T03:25:43;23.00;;;8.30;;
69750;SDS011;57335;52.288;6.056;2023-12-07T03:30:36;20.63;;;8.40;;
69750;SDS011;57335;52.288;6.056;2023-12-07T03:33:02;24.63;;;9.32;;
69750;SDS011;57335;52.288;6.056;2023-12-07T03:35:29;27.05;;;9.65;;
69750;SDS011;57335;52.288;6.056;2023-12-07T03:37:55;30.02;;;10.73;;
69750;SDS011;57335;52.288;6.056;2023-12-07T03:40:22;25.00;;;9.52;;
69750;SDS011;57335;52.288;6.056;2023-12-07T03:42:49;26.48;;;9.15;;
69750;SDS011;57335;52.288;6.056;2023-12-07T03:45:22;27.33;;;10.02;;
69750;SDS011;57335;52.288;6.056;2023-12-07T03:50:15;26.05;;;9.88;;
69750;SDS011;57335;52.288;6.056;2023-12-07T03:55:08;23.92;;;8.73;;
69750;SDS011;57335;52.288;6.056;2023-12-07T03:57:37;24.95;;;9.73;;
69750;SDS011;57335;52.288;6.056;2023-12-07T04:00:03;27.60;;;9.93;;
69750;SDS011;57335;52.288;6.056;2023-12-07T04:02:33;24.60;;;9.95;;
69750;SDS011;57335;52.288;6.056;2023-12-07T04:05:00;26.33;;;9.60;;
69750;SDS011;57335;52.288;6.056;2023-12-07T04:07:28;27.52;;;9.43;;
69750;SDS011;57335;52.288;6.056;2023-12-07T04:09:56;25.80;;;9.48;;
69750;SDS011;57335;52.288;6.056;2023-12-07T04:12:23;24.67;;;9.35;;
69750;SDS011;57335;52.288;6.056;2023-12-07T04:14:50;27.35;;;10.15;;
69750;SDS011;57335;52.288;6.056;2023-12-07T04:17:17;24.88;;;8.98;;
69750;SDS011;57335;52.288;6.056;2023-12-07T04:19:44;26.92;;;9.52;;
69750;SDS011;57335;52.288;6.056;2023-12-07T04:22:10;27.23;;;10.10;;
69750;SDS011;57335;52.288;6.056;2023-12-07T04:24:37;22.63;;;8.23;;
69750;SDS011;57335;52.288;6.056;2023-12-07T04:27:04;22.20;;;7.70;;
69750;SDS011;57335;52.288;6.056;2023-12-07T04:29:30;24.02;;;8.80;;
69750;SDS011;57335;52.288;6.056;2023-12-07T04:34:23;17.85;;;7.78;;
69750;SDS011;57335;52.288;6.056;2023-12-07T04:39:16;52.80;;;11.18;;
69750;SDS011;57335;52.288;6.056;2023-12-07T04:41:42;46.67;;;9.88;;
69750;SDS011;57335;52.288;6.056;2023-12-07T04:44:09;37.42;;;9.93;;
69750;SDS011;57335;52.288;6.056;2023-12-07T04:46:36;24.85;;;8.93;;
69750;SDS011;57335;52.288;6.056;2023-12-07T04:49:03;31.70;;;10.18;;
69750;SDS011;57335;52.288;6.056;2023-12-07T04:51:30;56.60;;;12.13;;
69750;SDS011;57335;52.288;6.056;2023-12-07T04:53:56;31.63;;;9.73;;
69750;SDS011;57335;52.288;6.056;2023-12-07T04:56:39;34.53;;;11.23;;
69750;SDS011;57335;52.288;6.056;2023-12-07T04:59:06;26.63;;;10.13;;
69750;SDS011;57335;52.288;6.056;2023-12-07T05:03:59;26.13;;;10.05;;
69750;SDS011;57335;52.288;6.056;2023-12-07T05:08:52;90.43;;;15.13;;
69750;SDS011;57335;52.288;6.056;2023-12-07T05:11:19;38.08;;;10.20;;
69750;SDS011;57335;52.288;6.056;2023-12-07T05:13:45;28.50;;;10.52;;
69750;SDS011;57335;52.288;6.056;2023-12-07T05:16:11;25.90;;;10.15;;
69750;SDS011;57335;52.288;6.056;2023-12-07T05:18:38;30.10;;;9.63;;
69750;SDS011;57335;52.288;6.056;2023-12-07T05:23:31;27.10;;;9.88;;
69750;SDS011;57335;52.288;6.056;2023-12-07T05:25:59;27.52;;;9.65;;
69750;SDS011;57335;52.288;6.056;2023-12-07T05:28:26;27.92;;;10.10;;
69750;SDS011;57335;52.288;6.056;2023-12-07T05:30:53;32.45;;;11.25;;
69750;SDS011;57335;52.288;6.056;2023-12-07T05:33:19;32.38;;;11.50;;
69750;SDS011;57335;52.288;6.056;2023-12-07T05:38:12;23.88;;;10.65;;
69750;SDS011;57335;52.288;6.056;2023-12-07T05:40:39;28.23;;;10.55;;
69750;SDS011;57335;52.288;6.056;2023-12-07T05:43:05;29.67;;;11.00;;
69750;SDS011;57335;52.288;6.056;2023-12-07T05:47:58;30.38;;;10.88;;
69750;SDS011;57335;52.288;6.056;2023-12-07T05:50:25;30.83;;;11.45;;
69750;SDS011;57335;52.288;6.056;2023-12-07T05:52:51;35.10;;;12.57;;
69750;SDS011;57335;52.288;6.056;2023-12-07T05:55:18;30.67;;;10.82;;
69750;SDS011;57335;52.288;6.056;2023-12-07T05:57:45;35.45;;;11.90;;
69750;SDS011;57335;52.288;6.056;2023-12-07T06:00:12;32.03;;;11.23;;
69750;SDS011;57335;52.288;6.056;2023-12-07T06:02:39;28.55;;;10.20;;
69750;SDS011;57335;52.288;6.056;2023-12-07T06:05:06;26.08;;;9.65;;
69750;SDS011;57335;52.288;6.056;2023-12-07T06:07:33;28.80;;;10.75;;
69750;SDS011;57335;52.288;6.056;2023-12-07T06:10:00;28.85;;;10.10;;
69750;SDS011;57335;52.288;6.056;2023-12-07T06:12:27;28.73;;;10.10;;
69750;SDS011;57335;52.288;6.056;2023-12-07T06:14:56;30.27;;;10.13;;
69750;SDS011;57335;52.288;6.056;2023-12-07T06:17:22;33.50;;;10.88;;
69750;SDS011;57335;52.288;6.056;2023-12-07T06:22:16;24.65;;;9.52;;
69750;SDS011;57335;52.288;6.056;2023-12-07T06:24:44;25.65;;;10.90;;
69750;SDS011;57335;52.288;6.056;2023-12-07T06:27:11;23.42;;;8.88;;
69750;SDS011;57335;52.288;6.056;2023-12-07T06:29:38;21.65;;;8.32;;
69750;SDS011;57335;52.288;6.056;2023-12-07T06:32:06;20.73;;;7.85;;
69750;SDS011;57335;52.288;6.056;2023-12-07T06:34:35;20.92;;;8.85;;
69750;SDS011;57335;52.288;6.056;2023-12-07T06:37:06;23.67;;;9.02;;
69750;SDS011;57335;52.288;6.056;2023-12-07T06:39:34;22.63;;;9.00;;
69750;SDS011;57335;52.288;6.056;2023-12-07T06:42:01;35.97;;;9.73;;
69750;SDS011;57335;52.288;6.056;2023-12-07T06:44:29;47.92;;;10.15;;
69750;SDS011;57335;52.288;6.056;2023-12-07T06:46:56;32.80;;;8.70;;
69750;SDS011;57335;52.288;6.056;2023-12-07T06:49:24;55.03;;;11.73;;
69750;SDS011;57335;52.288;6.056;2023-12-07T06:52:08;58.45;;;11.38;;
69750;SDS011;57335;52.288;6.056;2023-12-07T06:54:38;57.42;;;12.27;;
69750;SDS011;57335;52.288;6.056;2023-12-07T06:57:05;41.05;;;11.68;;
69750;SDS011;57335;52.288;6.056;2023-12-07T06:59:35;60.80;;;14.15;;
69750;SDS011;57335;52.288;6.056;2023-12-07T07:02:01;85.03;;;13.88;;
69750;SDS011;57335;52.288;6.056;2023-12-07T07:04:29;65.57;;;11.60;;
69750;SDS011;57335;52.288;6.056;2023-12-07T07:06:56;50.10;;;10.88;;
69750;SDS011;57335;52.288;6.056;2023-12-07T07:09:26;82.30;;;15.02;;
69750;SDS011;57335;52.288;6.056;2023-12-07T07:11:53;87.50;;;14.88;;
69750;SDS011;57335;52.288;6.056;2023-12-07T07:16:46;74.95;;;14.68;;
69750;SDS011;57335;52.288;6.056;2023-12-07T07:19:13;63.33;;;15.85;;
69750;SDS011;57335;52.288;6.056;2023-12-07T07:21:40;52.55;;;12.98;;
69750;SDS011;57335;52.288;6.056;2023-12-07T07:24:06;55.25;;;14.57;;
69750;SDS011;57335;52.288;6.056;2023-12-07T07:26:35;80.50;;;15.30;;
69750;SDS011;57335;52.288;6.056;2023-12-07T07:29:01;82.32;;;15.65;;
69750;SDS011;57335;52.288;6.056;2023-12-07T07:31:30;89.70;;;16.98;;
69750;SDS011;57335;52.288;6.056;2023-12-07T07:36:26;85.85;;;16.13;;
69750;SDS011;57335;52.288;6.056;2023-12-07T07:38:53;91.95;;;17.48;;
69750;SDS011;57335;52.288;6.056;2023-12-07T07:41:20;64.90;;;13.98;;
69750;SDS011;57335;52.288;6.056;2023-12-07T07:46:13;81.00;;;14.50;;
69750;SDS011;57335;52.288;6.056;2023-12-07T07:48:40;87.68;;;18.10;;
69750;SDS011;57335;52.288;6.056;2023-12-07T07:53:33;77.72;;;15.60;;
69750;SDS011;57335;52.288;6.056;2023-12-07T07:56:00;67.63;;;14.63;;
69750;SDS011;57335;52.288;6.056;2023-12-07T08:00:53;85.85;;;18.80;;
69750;SDS011;57335;52.288;6.056;2023-12-07T08:03:20;108.03;;;18.38;;
69750;SDS011;57335;52.288;6.056;2023-12-07T08:05:46;125.70;;;20.63;;
69750;SDS011;57335;52.288;6.056;2023-12-07T08:08:13;151.10;;;20.45;;
69750;SDS011;57335;52.288;6.056;2023-12-07T08:10:39;91.20;;;18.17;;
69750;SDS011;57335;52.288;6.056;2023-12-07T08:13:21;90.57;;;18.73;;
69750;SDS011;57335;52.288;6.056;2023-12-07T08:15:48;99.22;;;20.30;;
69750;SDS011;57335;52.288;6.056;2023-12-07T08:18:14;73.18;;;14.77;;
69750;SDS011;57335;52.288;6.056;2023-12-07T08:20:41;144.00;;;23.17;;
69750;SDS011;57335;52.288;6.056;2023-12-07T08:23:07;126.50;;;21.77;;
69750;SDS011;57335;52.288;6.056;2023-12-07T08:25:33;160.88;;;21.33;;
69750;SDS011;57335;52.288;6.056;2023-12-07T08:30:26;131.65;;;21.88;;
69750;SDS011;57335;52.288;6.056;2023-12-07T08:32:53;105.20;;;19.95;;
69750;SDS011;57335;52.288;6.056;2023-12-07T08:35:20;137.43;;;19.88;;
69750;SDS011;57335;52.288;6.056;2023-12-07T08:37:46;88.35;;;18.55;;
69750;SDS011;57335;52.288;6.056;2023-12-07T08:40:13;104.50;;;19.08;;
69750;SDS011;57335;52.288;6.056;2023-12-07T08:42:44;108.20;;;18.77;;
69750;SDS011;57335;52.288;6.056;2023-12-07T08:45:14;99.57;;;20.65;;
69750;SDS011;57335;52.288;6.056;2023-12-07T08:50:08;131.45;;;21.40;;
69750;SDS011;57335;52.288;6.056;2023-12-07T08:52:35;107.10;;;18.88;;
69750;SDS011;57335;52.288;6.056;2023-12-07T08:55:12;172.45;;;25.70;;
69750;SDS011;57335;52.288;6.056;2023-12-07T08:57:42;101.25;;;19.63;;
69750;SDS011;57335;52.288;6.056;2023-12-07T09:00:08;140.32;;;23.65;;
69750;SDS011;57335;52.288;6.056;2023-12-07T09:02:36;108.55;;;18.90;;
69750;SDS011;57335;52.288;6.056;2023-12-07T09:05:13;123.80;;;20.23;;
69750;SDS011;57335;52.288;6.056;2023-12-07T09:07:39;132.63;;;21.75;;
69750;SDS011;57335;52.288;6.056;2023-12-07T09:10:07;132.93;;;22.10;;
69750;SDS011;57335;52.288;6.056;2023-12-07T09:12:35;154.80;;;24.58;;
69750;SDS011;57335;52.288;6.056;2023-12-07T09:15:05;109.95;;;19.08;;
69750;SDS011;57335;52.288;6.056;2023-12-07T09:17:37;101.03;;;19.48;;
69750;SDS011;57335;52.288;6.056;2023-12-07T09:20:06;116.38;;;18.58;;
69750;SDS011;57335;52.288;6.056;2023-12-07T09:22:39;101.85;;;18.98;;
69750;SDS011;57335;52.288;6.056;2023-12-07T09:25:10;200.18;;;25.80;;
69750;SDS011;57335;52.288;6.056;2023-12-07T09:27:38;164.73;;;23.35;;
69750;SDS011;57335;52.288;6.056;2023-12-07T09:30:05;124.70;;;20.83;;
69750;SDS011;57335;52.288;6.056;2023-12-07T09:32:40;147.65;;;21.95;;
69750;SDS011;57335;52.288;6.056;2023-12-07T09:35:10;167.13;;;23.20;;
69750;SDS011;57335;52.288;6.056;2023-12-07T09:37:48;142.75;;;20.60;;
69750;SDS011;57335;52.288;6.056;2023-12-07T09:40:16;137.93;;;23.02;;
69750;SDS011;57335;52.288;6.056;2023-12-07T09:42:44;136.60;;;20.88;;
69750;SDS011;57335;52.288;6.056;2023-12-07T09:45:11;109.65;;;20.27;;
69750;SDS011;57335;52.288;6.056;2023-12-07T09:47:38;112.97;;;20.13;;
69750;SDS011;57335;52.288;6.056;2023-12-07T09:50:09;109.32;;;19.90;;
69750;SDS011;57335;52.288;6.056;2023-12-07T09:52:36;124.80;;;21.02;;
69750;SDS011;57335;52.288;6.056;2023-12-07T09:55:03;75.00;;;16.38;;
69750;SDS011;57335;52.288;6.056;2023-12-07T09:57:30;104.70;;;19.17;;
69750;SDS011;57335;52.288;6.056;2023-12-07T09:59:58;83.35;;;17.90;;
69750;SDS011;57335;52.288;6.056;2023-12-07T10:05:07;53.65;;;15.00;;
69750;SDS011;57335;52.288;6.056;2023-12-07T10:07:40;77.93;;;15.73;;
69750;SDS011;57335;52.288;6.056;2023-12-07T10:10:07;71.07;;;17.05;;
69750;SDS011;57335;52.288;6.056;2023-12-07T10:12:44;83.10;;;15.70;;
69750;SDS011;57335;52.288;6.056;2023-12-07T10:15:13;66.75;;;15.55;;
69750;SDS011;57335;52.288;6.056;2023-12-07T10:17:58;60.22;;;14.43;;
69750;SDS011;57335;52.288;6.056;2023-12-07T10:20:27;59.17;;;15.95;;
69750;SDS011;57335;52.288;6.056;2023-12-07T10:25:30;90.38;;;15.80;;
69750;SDS011;57335;52.288;6.056;2023-12-07T10:27:57;74.03;;;14.80;;
69750;SDS011;57335;52.288;6.056;2023-12-07T10:32:51;67.40;;;14.70;;
69750;SDS011;57335;52.288;6.056;2023-12-07T10:35:19;87.95;;;15.75;;
69750;SDS011;57335;52.288;6.056;2023-12-07T10:37:46;98.93;;;15.93;;
69750;SDS011;57335;52.288;6.056;2023-12-07T10:40:13;81.97;;;15.73;;
69750;SDS011;57335;52.288;6.056;2023-12-07T10:42:40;104.50;;;17.55;;
69750;SDS011;57335;52.288;6.056;2023-12-07T10:45:11;77.38;;;15.60;;
69750;SDS011;57335;52.288;6.056;2023-12-07T10:47:40;61.45;;;12.73;;
69750;SDS011;57335;52.288;6.056;2023-12-07T10:50:10;113.78;;;19.58;;
69750;SDS011;57335;52.288;6.056;2023-12-07T10:52:48;73.60;;;16.45;;
69750;SDS011;57335;52.288;6.056;2023-12-07T10:55:22;75.32;;;15.18;;
69750;SDS011;57335;52.288;6.056;2023-12-07T10:57:55;68.80;;;14.05;;
69750;SDS011;57335;52.288;6.056;2023-12-07T11:00:22;72.47;;;13.52;;
69750;SDS011;57335;52.288;6.056;2023-12-07T11:03:09;42.15;;;13.18;;
69750;SDS011;57335;52.288;6.056;2023-12-07T11:05:37;76.75;;;16.08;;
69750;SDS011;57335;52.288;6.056;2023-12-07T11:08:08;76.10;;;15.60;;
69750;SDS011;57335;52.288;6.056;2023-12-07T11:13:29;45.28;;;11.93;;
69750;SDS011;57335;52.288;6.056;2023-12-07T11:15:58;62.28;;;13.95;;
69750;SDS011;57335;52.288;6.056;2023-12-07T11:20:52;63.30;;;12.55;;
69750;SDS011;57335;52.288;6.056;2023-12-07T11:23:20;58.17;;;12.50;;
69750;SDS011;57335;52.288;6.056;2023-12-07T11:25:48;55.92;;;11.93;;
69750;SDS011;57335;52.288;6.056;2023-12-07T11:28:16;43.00;;;11.70;;
69750;SDS011;57335;52.288;6.056;2023-12-07T11:30:46;39.03;;;10.45;;
69750;SDS011;57335;52.288;6.056;2023-12-07T11:33:14;53.15;;;12.80;;
69750;SDS011;57335;52.288;6.056;2023-12-07T11:38:30;41.17;;;10.80;;
69750;SDS011;57335;52.288;6.056;2023-12-07T11:45:59;48.72;;;11.13;;
69750;SDS011;57335;52.288;6.056;2023-12-07T11:48:25;44.13;;;10.90;;
69750;SDS011;57335;52.288;6.056;2023-12-07T11:50:53;47.38;;;10.20;;
69750;SDS011;57335;52.288;6.056;2023-12-07T11:53:24;47.72;;;10.25;;
69750;SDS011;57335;52.288;6.056;2023-12-07T11:55:57;55.38;;;10.40;;
69750;SDS011;57335;52.288;6.056;2023-12-07T11:58:25;39.20;;;9.43;;
69750;SDS011;57335;52.288;6.056;2023-12-07T12:00:52;40.63;;;10.07;;
69750;SDS011;57335;52.288;6.056;2023-12-07T12:03:23;42.70;;;10.20;;
69750;SDS011;57335;52.288;6.056;2023-12-07T12:05:50;31.52;;;9.05;;
69750;SDS011;57335;52.288;6.056;2023-12-07T12:08:17;30.85;;;9.15;;
69750;SDS011;57335;52.288;6.056;2023-12-07T12:10:45;35.85;;;9.18;;
69750;SDS011;57335;52.288;6.056;2023-12-07T12:13:12;38.78;;;10.30;;
69750;SDS011;57335;52.288;6.056;2023-12-07T12:15:39;30.95;;;9.35;;
69750;SDS011;57335;52.288;6.056;2023-12-07T12:18:06;29.92;;;8.50;;
69750;SDS011;57335;52.288;6.056;2023-12-07T12:20:34;41.05;;;9.95;;
69750;SDS011;57335;52.288;6.056;2023-12-07T12:23:01;31.50;;;8.52;;
69750;SDS011;57335;52.288;6.056;2023-12-07T12:25:28;32.95;;;8.00;;
69750;SDS011;57335;52.288;6.056;2023-12-07T12:27:57;37.88;;;8.98;;
69750;SDS011;57335;52.288;6.056;2023-12-07T12:30:29;35.13;;;9.20;;
69750;SDS011;57335;52.288;6.056;2023-12-07T12:32:57;37.72;;;9.50;;
69750;SDS011;57335;52.288;6.056;2023-12-07T12:35:26;39.65;;;10.45;;
69750;SDS011;57335;52.288;6.056;2023-12-07T12:37:53;37.55;;;10.77;;
69750;SDS011;57335;52.288;6.056;2023-12-07T12:40:22;37.55;;;9.95;;
69750;SDS011;57335;52.288;6.056;2023-12-07T12:42:50;37.50;;;9.93;;
69750;SDS011;57335;52.288;6.056;2023-12-07T12:45:22;41.25;;;9.65;;
69750;SDS011;57335;52.288;6.056;2023-12-07T12:47:49;43.22;;;11.10;;
69750;SDS011;57335;52.288;6.056;2023-12-07T12:53:05;41.78;;;11.05;;
69750;SDS011;57335;52.288;6.056;2023-12-07T12:55:40;48.30;;;11.73;;
69750;SDS011;57335;52.288;6.056;2023-12-07T12:58:08;45.53;;;12.15;;
69750;SDS011;57335;52.288;6.056;2023-12-07T13:00:39;48.42;;;10.45;;
69750;SDS011;57335;52.288;6.056;2023-12-07T13:03:06;51.03;;;11.98;;
69750;SDS011;57335;52.288;6.056;2023-12-07T13:05:33;47.83;;;12.40;;
69750;SDS011;57335;52.288;6.056;2023-12-07T13:08:01;52.72;;;12.70;;
69750;SDS011;57335;52.288;6.056;2023-12-07T13:10:31;40.75;;;11.02;;
69750;SDS011;57335;52.288;6.056;2023-12-07T13:12:58;40.10;;;10.52;;
69750;SDS011;57335;52.288;6.056;2023-12-07T13:17:51;44.05;;;10.85;;
69750;SDS011;57335;52.288;6.056;2023-12-07T13:20:18;43.70;;;12.50;;
69750;SDS011;57335;52.288;6.056;2023-12-07T13:22:45;47.85;;;13.38;;
69750;SDS011;57335;52.288;6.056;2023-12-07T13:27:40;45.20;;;11.10;;
69750;SDS011;57335;52.288;6.056;2023-12-07T13:30:09;44.72;;;11.82;;
69750;SDS011;57335;52.288;6.056;2023-12-07T13:32:36;57.63;;;13.90;;
69750;SDS011;57335;52.288;6.056;2023-12-07T13:35:04;55.17;;;13.77;;
69750;SDS011;57335;52.288;6.056;2023-12-07T13:37:31;51.90;;;12.35;;
69750;SDS011;57335;52.288;6.056;2023-12-07T13:40:00;53.70;;;13.65;;
69750;SDS011;57335;52.288;6.056;2023-12-07T13:42:30;52.33;;;13.68;;
69750;SDS011;57335;52.288;6.056;2023-12-07T13:44:58;51.13;;;13.85;;
69750;SDS011;57335;52.288;6.056;2023-12-07T13:47:26;49.97;;;13.95;;
69750;SDS011;57335;52.288;6.056;2023-12-07T13:50:03;55.22;;;14.15;;
69750;SDS011;57335;52.288;6.056;2023-12-07T13:52:31;51.67;;;13.75;;
69750;SDS011;57335;52.288;6.056;2023-12-07T13:54:58;43.33;;;13.63;;
69750;SDS011;57335;52.288;6.056;2023-12-07T13:59:52;60.20;;;16.75;;
69750;SDS011;57335;52.288;6.056;2023-12-07T14:02:19;41.25;;;12.27;;
69750;SDS011;57335;52.288;6.056;2023-12-07T14:04:46;53.95;;;15.40;;
69750;SDS011;57335;52.288;6.056;2023-12-07T14:07:17;50.50;;;14.77;;
69750;SDS011;57335;52.288;6.056;2023-12-07T14:09:46;59.38;;;14.52;;
69750;SDS011;57335;52.288;6.056;2023-12-07T14:12:23;64.20;;;15.10;;
69750;SDS011;57335;52.288;6.056;2023-12-07T14:14:51;58.03;;;16.23;;
69750;SDS011;57335;52.288;6.056;2023-12-07T14:20:00;43.33;;;14.38;;
69750;SDS011;57335;52.288;6.056;2023-12-07T14:22:46;46.72;;;14.13;;
69750;SDS011;57335;52.288;6.056;2023-12-07T14:25:13;54.45;;;16.00;;
69750;SDS011;57335;52.288;6.056;2023-12-07T14:30:06;50.97;;;14.45;;
69750;SDS011;57335;52.288;6.056;2023-12-07T14:32:33;52.03;;;16.58;;
69750;SDS011;57335;52.288;6.056;2023-12-07T14:35:00;55.92;;;16.98;;
69750;SDS011;57335;52.288;6.056;2023-12-07T14:37:27;53.08;;;17.33;;
69750;SDS011;57335;52.288;6.056;2023-12-07T14:39:54;52.25;;;16.73;;
69750;SDS011;57335;52.288;6.056;2023-12-07T14:42:20;57.65;;;17.17;;
69750;SDS011;57335;52.288;6.056;2023-12-07T14:44:48;48.15;;;15.85;;
69750;SDS011;57335;52.288;6.056;2023-12-07T14:47:15;50.78;;;14.98;;
69750;SDS011;57335;52.288;6.056;2023-12-07T14:52:08;54.35;;;16.42;;
69750;SDS011;57335;52.288;6.056;2023-12-07T14:57:04;43.92;;;13.32;;
69750;SDS011;57335;52.288;6.056;2023-12-07T14:59:34;47.53;;;16.08;;
69750;SDS011;57335;52.288;6.056;2023-12-07T15:04:27;53.50;;;16.77;;
69750;SDS011;57335;52.288;6.056;2023-12-07T15:07:00;48.42;;;16.15;;
69750;SDS011;57335;52.288;6.056;2023-12-07T15:09:27;58.30;;;16.45;;
69750;SDS011;57335;52.288;6.056;2023-12-07T15:11:55;52.65;;;17.42;;
69750;SDS011;57335;52.288;6.056;2023-12-07T15:14:22;51.75;;;14.57;;
69750;SDS011;57335;52.288;6.056;2023-12-07T15:17:03;58.92;;;19.20;;
69750;SDS011;57335;52.288;6.056;2023-12-07T15:19:31;56.40;;;18.45;;
69750;SDS011;57335;52.288;6.056;2023-12-07T15:21:59;59.65;;;17.08;;
69750;SDS011;57335;52.288;6.056;2023-12-07T15:24:25;63.67;;;18.90;;
69750;SDS011;57335;52.288;6.056;2023-12-07T15:27:01;65.25;;;18.30;;
69750;SDS011;57335;52.288;6.056;2023-12-07T15:29:29;65.03;;;20.38;;
69750;SDS011;57335;52.288;6.056;2023-12-07T15:31:56;78.30;;;21.83;;
69750;SDS011;57335;52.288;6.056;2023-12-07T15:34:22;73.32;;;19.48;;
69750;SDS011;57335;52.288;6.056;2023-12-07T15:37:03;67.43;;;19.65;;
69750;SDS011;57335;52.288;6.056;2023-12-07T15:39:30;72.32;;;20.33;;
69750;SDS011;57335;52.288;6.056;2023-12-07T15:41:56;70.18;;;20.15;;
69750;SDS011;57335;52.288;6.056;2023-12-07T15:44:24;80.13;;;20.75;;
69750;SDS011;57335;52.288;6.056;2023-12-07T15:46:55;69.60;;;20.70;;
69750;SDS011;57335;52.288;6.056;2023-12-07T15:49:23;62.10;;;19.45;;
69750;SDS011;57335;52.288;6.056;2023-12-07T15:51:50;76.72;;;20.45;;
69750;SDS011;57335;52.288;6.056;2023-12-07T15:57:02;72.78;;;19.58;;
69750;SDS011;57335;52.288;6.056;2023-12-07T15:59:28;65.68;;;18.52;;
69750;SDS011;57335;52.288;6.056;2023-12-07T16:04:21;62.70;;;19.65;;
69750;SDS011;57335;52.288;6.056;2023-12-07T16:06:59;60.90;;;17.73;;
69750;SDS011;57335;52.288;6.056;2023-12-07T16:09:29;62.45;;;18.90;;
69750;SDS011;57335;52.288;6.056;2023-12-07T16:11:58;73.22;;;19.48;;
69750;SDS011;57335;52.288;6.056;2023-12-07T16:14:26;52.70;;;16.88;;
69750;SDS011;57335;52.288;6.056;2023-12-07T16:16:56;54.45;;;18.15;;
69750;SDS011;57335;52.288;6.056;2023-12-07T16:19:24;55.83;;;16.13;;
69750;SDS011;57335;52.288;6.056;2023-12-07T16:21:51;67.45;;;20.48;;
69750;SDS011;57335;52.288;6.056;2023-12-07T16:24:18;59.50;;;17.65;;
69750;SDS011;57335;52.288;6.056;2023-12-07T16:26:44;48.70;;;15.93;;
69750;SDS011;57335;52.288;6.056;2023-12-07T16:29:11;60.35;;;18.17;;
69750;SDS011;57335;52.288;6.056;2023-12-07T16:31:38;53.22;;;16.50;;
69750;SDS011;57335;52.288;6.056;2023-12-07T16:34:04;54.20;;;16.65;;
69750;SDS011;57335;52.288;6.056;2023-12-07T16:36:31;50.80;;;14.63;;
69750;SDS011;57335;52.288;6.056;2023-12-07T16:38:58;58.08;;;15.55;;
69750;SDS011;57335;52.288;6.056;2023-12-07T16:41:29;43.33;;;13.25;;
69750;SDS011;57335;52.288;6.056;2023-12-07T16:44:06;69.60;;;19.08;;
69750;SDS011;57335;52.288;6.056;2023-12-07T16:49:00;57.40;;;17.00;;